Weather at Heck Field Airport

Public forecast

Using degrees Celsius for public forecast. Weather courtesy of forecast.io.

Closest aviation weather report (METAR) to Heck Field Airport

Closest report is Gold Coast Airport, 25.5 nm (47.3 km) SSE.

2024/02/25 11:00 (retrieved 37 minutes ago)

YBCG 251100Z AUTO 19004KT 9999 // SCT024 SCT059 24/22 Q1014

Closest aviation forecast (TAF) to Heck Field Airport

Closest forecast is Gold Coast Airport, 25.5 nm (47.3 km) SSE.

2024/02/25 09:42 Ammendment (retrieved 2 hours ago)

AMD YBCG 250838Z 2509/2606 20005KT 9999 -SHRA SCT015 BKN020 BECMG 2600/2601 10012KT 9999 -SHRA SCT025 TEMPO 2509/2510 3000 SHRA BKN012 INTER 2510/2512 3000 SHRA BKN012